createdAt,value
2022-10-30T00:01:39.590Z,33.43
2022-10-30T00:04:06.526Z,33.10
2022-10-30T00:06:33.364Z,33.77
2022-10-30T00:09:00.805Z,29.30
2022-10-30T00:11:28.681Z,34.13
2022-10-30T00:13:55.655Z,36.50
2022-10-30T00:16:22.505Z,36.00
2022-10-30T00:18:49.390Z,30.70
2022-10-30T00:21:16.484Z,34.13
2022-10-30T00:23:45.738Z,37.40
2022-10-30T00:26:13.260Z,36.20
2022-10-30T00:28:40.140Z,37.33
2022-10-30T00:31:07.183Z,39.13
2022-10-30T00:33:34.134Z,36.97
2022-10-30T00:36:01.501Z,33.97
2022-10-30T00:38:28.481Z,31.77
2022-10-30T00:40:55.330Z,37.67
2022-10-30T00:43:34.149Z,36.03
2022-10-30T00:46:05.899Z,37.23
2022-10-30T00:48:32.884Z,39.80
2022-10-30T00:51:01.129Z,37.67
2022-10-30T00:53:29.348Z,37.50
2022-10-30T00:56:00.902Z,33.63
2022-10-30T00:58:32.710Z,35.30
2022-10-30T01:01:02.803Z,41.17
2022-10-30T01:03:31.233Z,42.73
2022-10-30T01:06:02.370Z,42.47
2022-10-30T01:08:29.466Z,40.97
2022-10-30T01:10:57.785Z,41.43
2022-10-30T01:13:24.883Z,42.30
2022-10-30T01:16:08.680Z,40.57
2022-10-30T01:18:43.679Z,41.23
2022-10-30T01:21:31.296Z,39.30
2022-10-30T01:24:15.258Z,34.33
2022-10-30T01:26:50.728Z,34.97
2022-10-30T01:29:30.082Z,41.73
2022-10-30T01:32:14.561Z,37.40
2022-10-30T01:34:46.991Z,37.80
2022-10-30T01:37:19.538Z,36.90
2022-10-30T01:39:46.719Z,38.20
2022-10-30T01:42:55.107Z,37.23
2022-10-30T01:45:26.497Z,37.10
2022-10-30T01:48:08.834Z,38.17
2022-10-30T01:50:43.426Z,35.87
2022-10-30T01:53:21.894Z,36.87
2022-10-30T01:55:54.602Z,34.73
2022-10-30T01:58:27.711Z,35.83
2022-10-30T02:00:58.495Z,34.03
2022-10-30T02:03:26.568Z,32.17
2022-10-30T02:05:54.304Z,35.53
2022-10-30T02:08:21.970Z,34.60
2022-10-30T02:10:50.845Z,37.03
2022-10-30T02:13:17.727Z,36.40
2022-10-30T02:15:46.503Z,31.70
2022-10-30T02:18:13.517Z,33.70
2022-10-30T02:20:40.797Z,33.67
2022-10-30T02:23:11.967Z,34.03
2022-10-30T02:25:39.126Z,28.60
2022-10-30T02:28:06.055Z,27.40
2022-10-30T02:30:32.983Z,30.77
2022-10-30T02:33:00.175Z,30.23
2022-10-30T02:35:27.465Z,28.27
2022-10-30T02:37:55.047Z,30.87
2022-10-30T02:40:22.074Z,30.17
2022-10-30T02:42:52.217Z,27.33
2022-10-30T02:45:19.234Z,34.40
2022-10-30T02:47:46.074Z,32.53
2022-10-30T02:50:13.057Z,34.00
2022-10-30T02:52:40.098Z,34.67
2022-10-30T02:55:08.240Z,33.23
2022-10-30T02:57:35.123Z,28.50
2022-10-30T03:00:02.078Z,33.77
2022-10-30T03:02:28.944Z,31.07
2022-10-30T03:04:55.785Z,31.83
2022-10-30T03:07:22.597Z,29.70
2022-10-30T03:09:49.416Z,28.13
2022-10-30T03:12:16.589Z,27.33
2022-10-30T03:14:43.407Z,28.67
2022-10-30T03:17:10.245Z,28.00
2022-10-30T03:19:37.128Z,26.87
2022-10-30T03:22:04.062Z,27.00
2022-10-30T03:24:30.883Z,27.37
2022-10-30T03:26:57.776Z,31.77
2022-10-30T03:29:24.981Z,29.00
2022-10-30T03:31:51.844Z,28.23
2022-10-30T03:34:18.670Z,32.27
2022-10-30T03:36:45.563Z,30.83
2022-10-30T03:39:12.422Z,29.23
2022-10-30T03:41:39.262Z,31.73
2022-10-30T03:44:06.232Z,33.60
2022-10-30T03:46:33.452Z,32.07
2022-10-30T03:49:00.057Z,27.77
2022-10-30T03:51:26.958Z,30.50
2022-10-30T03:53:53.823Z,36.10
2022-10-30T03:56:20.685Z,34.97
2022-10-30T03:58:47.594Z,35.40
2022-10-30T04:01:14.509Z,35.83
2022-10-30T04:03:41.771Z,30.60
2022-10-30T04:06:08.744Z,37.83
2022-10-30T04:08:35.763Z,38.33
2022-10-30T04:11:02.703Z,34.93
2022-10-30T04:13:29.651Z,35.00
2022-10-30T04:15:58.320Z,35.00
2022-10-30T04:18:25.864Z,36.53
2022-10-30T04:20:53.375Z,37.43
2022-10-30T04:23:21.322Z,36.23
2022-10-30T04:25:48.266Z,33.43
2022-10-30T04:28:15.178Z,32.17
2022-10-30T04:30:42.046Z,31.37
2022-10-30T04:33:11.329Z,31.30
2022-10-30T04:35:38.221Z,35.27
2022-10-30T04:38:07.424Z,33.43
2022-10-30T04:40:36.417Z,33.93
2022-10-30T04:43:03.365Z,35.10
2022-10-30T04:45:30.386Z,36.60
2022-10-30T04:48:01.845Z,33.67
2022-10-30T04:50:29.187Z,35.30
2022-10-30T04:53:00.017Z,31.77
2022-10-30T04:55:27.586Z,32.33
2022-10-30T04:57:56.380Z,34.00
2022-10-30T05:00:23.395Z,33.60
2022-10-30T05:02:50.256Z,36.37
2022-10-30T05:05:17.171Z,32.40
2022-10-30T05:07:44.011Z,33.17
2022-10-30T05:10:13.859Z,29.30
2022-10-30T05:12:41.898Z,30.83
2022-10-30T05:15:09.070Z,31.60
2022-10-30T05:17:35.902Z,36.20
2022-10-30T05:20:02.908Z,34.13
2022-10-30T05:22:29.714Z,31.23
2022-10-30T05:24:56.564Z,30.80
2022-10-30T05:27:24.493Z,31.73
2022-10-30T05:29:51.705Z,29.33
2022-10-30T05:32:18.522Z,31.37
2022-10-30T05:34:46.213Z,29.10
2022-10-30T05:37:13.095Z,30.00
2022-10-30T05:39:42.370Z,30.23
2022-10-30T05:42:13.542Z,28.87
2022-10-30T05:44:59.894Z,31.17
2022-10-30T05:47:27.956Z,29.20
2022-10-30T05:49:54.802Z,30.53
2022-10-30T05:52:21.716Z,30.73
2022-10-30T05:54:48.673Z,28.03
2022-10-30T05:57:15.562Z,28.83
2022-10-30T05:59:42.418Z,28.37
2022-10-30T06:05:50.372Z,28.87
2022-10-30T06:08:17.262Z,29.67
2022-10-30T06:10:44.130Z,29.03
2022-10-30T06:13:11.143Z,30.53
2022-10-30T06:15:37.992Z,28.97
2022-10-30T06:18:04.934Z,29.17
2022-10-30T06:20:34.170Z,27.63
2022-10-30T06:23:02.627Z,28.27
2022-10-30T06:25:30.550Z,28.13
2022-10-30T06:27:58.443Z,26.87
2022-10-30T06:30:25.755Z,27.53
2022-10-30T06:32:56.916Z,26.97
2022-10-30T06:35:23.968Z,28.43
2022-10-30T06:37:52.758Z,28.27
2022-10-30T06:40:20.529Z,27.47
2022-10-30T06:42:48.800Z,27.17
2022-10-30T06:45:16.683Z,27.17
2022-10-30T06:47:43.579Z,26.03
2022-10-30T06:50:12.650Z,26.00
2022-10-30T06:52:39.716Z,25.67
2022-10-30T06:55:38.423Z,27.53
2022-10-30T06:58:06.282Z,25.70
2022-10-30T07:00:33.189Z,25.43
2022-10-30T07:03:02.228Z,26.13
2022-10-30T07:05:29.695Z,24.67
2022-10-30T07:07:57.632Z,24.00
2022-10-30T07:10:24.574Z,24.07
2022-10-30T07:12:53.207Z,22.53
2022-10-30T07:15:20.297Z,21.53
2022-10-30T07:17:53.481Z,19.77
2022-10-30T07:20:20.338Z,19.60
2022-10-30T07:22:47.245Z,20.03
2022-10-30T07:25:14.172Z,19.67
2022-10-30T07:27:43.965Z,17.77
2022-10-30T07:30:12.716Z,18.30
2022-10-30T07:32:39.604Z,18.80
2022-10-30T07:35:07.326Z,19.27
2022-10-30T07:37:34.495Z,18.90
2022-10-30T07:40:01.699Z,18.20
2022-10-30T07:42:28.618Z,16.93
2022-10-30T07:44:55.511Z,16.53
2022-10-30T07:47:22.868Z,15.10
2022-10-30T07:49:49.752Z,15.27
2022-10-30T07:52:17.560Z,14.80
2022-10-30T07:54:44.640Z,15.20
2022-10-30T07:57:11.494Z,15.57
2022-10-30T07:59:38.416Z,14.80
2022-10-30T08:02:05.407Z,14.20
2022-10-30T08:04:32.687Z,13.23
2022-10-30T08:06:59.542Z,15.00
2022-10-30T08:09:26.383Z,13.67
2022-10-30T08:11:53.382Z,12.57
2022-10-30T08:14:20.607Z,13.03
2022-10-30T08:16:47.496Z,12.73
2022-10-30T08:19:14.400Z,11.87
2022-10-30T08:21:41.647Z,11.87
2022-10-30T08:24:08.575Z,12.07
2022-10-30T08:26:35.520Z,12.30
2022-10-30T08:29:02.463Z,12.07
2022-10-30T08:31:29.295Z,11.10
2022-10-30T08:33:56.252Z,12.50
2022-10-30T08:36:23.097Z,11.90
2022-10-30T08:38:50.482Z,11.43
2022-10-30T08:41:17.460Z,12.07
2022-10-30T08:43:45.369Z,11.63
2022-10-30T08:46:12.212Z,22.30
2022-10-30T08:48:39.064Z,12.33
2022-10-30T08:51:06.397Z,15.07
2022-10-30T08:53:33.519Z,11.63
2022-10-30T08:56:00.766Z,12.60
2022-10-30T08:58:27.664Z,11.47
2022-10-30T09:01:00.217Z,11.03
2022-10-30T09:03:28.161Z,10.90
2022-10-30T09:05:55.020Z,11.03
2022-10-30T09:08:22.186Z,10.33
2022-10-30T09:10:49.136Z,10.43
2022-10-30T09:13:16.439Z,10.87
2022-10-30T09:15:43.353Z,9.60
2022-10-30T09:18:10.364Z,10.23
2022-10-30T09:20:37.818Z,9.33
2022-10-30T09:23:04.725Z,10.43
2022-10-30T09:25:32.051Z,10.17
2022-10-30T09:27:58.902Z,10.00
2022-10-30T09:30:26.247Z,10.63
2022-10-30T09:32:57.152Z,9.00
2022-10-30T09:35:25.668Z,9.03
2022-10-30T09:42:13.746Z,9.47
2022-10-30T09:44:56.549Z,8.63
2022-10-30T09:47:43.566Z,8.07
2022-10-30T09:50:34.472Z,8.20
2022-10-30T09:53:20.822Z,8.77
2022-10-30T09:55:57.254Z,7.10
2022-10-30T09:58:32.912Z,7.50
2022-10-30T10:01:12.077Z,7.90
2022-10-30T10:06:26.311Z,7.20
2022-10-30T10:08:56.557Z,7.57
2022-10-30T10:11:29.288Z,7.53
2022-10-30T10:14:01.104Z,7.70
2022-10-30T10:16:30.514Z,6.43
2022-10-30T10:19:08.550Z,6.87
2022-10-30T10:21:40.005Z,7.77
2022-10-30T10:24:19.612Z,7.10
2022-10-30T10:26:49.643Z,7.07
2022-10-30T10:29:30.200Z,7.37
2022-10-30T10:32:12.919Z,6.80
2022-10-30T10:34:52.214Z,7.00
2022-10-30T10:37:31.135Z,7.47
2022-10-30T10:40:26.611Z,7.50
2022-10-30T10:43:11.322Z,6.63
2022-10-30T10:45:46.889Z,7.23
2022-10-30T10:48:32.498Z,7.80
2022-10-30T10:51:04.467Z,5.93
2022-10-30T10:53:38.144Z,6.13
2022-10-30T10:56:05.477Z,5.97
2022-10-30T10:58:36.112Z,5.60
2022-10-30T11:01:03.826Z,5.30
2022-10-30T11:03:39.488Z,15.20
2022-10-30T11:06:20.051Z,7.38
2022-10-30T11:08:47.459Z,5.28
2022-10-30T11:11:14.641Z,9.68
2022-10-30T11:13:44.095Z,6.03
2022-10-30T11:16:21.425Z,5.47
2022-10-30T11:18:52.303Z,5.60
2022-10-30T11:21:22.814Z,5.70
2022-10-30T11:23:50.123Z,5.90
2022-10-30T11:26:32.108Z,6.47
2022-10-30T11:29:04.766Z,6.10
2022-10-30T11:31:41.473Z,4.90
2022-10-30T11:34:25.516Z,5.95
2022-10-30T11:36:54.149Z,4.25
2022-10-30T11:39:22.752Z,5.43
2022-10-30T11:41:56.880Z,4.70
2022-10-30T11:44:27.280Z,5.28
2022-10-30T11:46:53.957Z,6.05
2022-10-30T11:49:31.311Z,10.70
2022-10-30T11:52:01.935Z,5.10
2022-10-30T11:54:29.040Z,5.30
2022-10-30T11:56:58.112Z,5.90
2022-10-30T11:59:25.845Z,6.32
2022-10-30T12:02:02.741Z,5.93
2022-10-30T12:04:32.297Z,11.07
2022-10-30T12:07:18.245Z,7.88
2022-10-30T12:09:47.021Z,7.10
2022-10-30T12:12:23.391Z,32.33
2022-10-30T12:14:50.866Z,18.87
2022-10-30T12:17:18.692Z,6.60
2022-10-30T12:19:47.846Z,5.77
2022-10-30T12:22:26.907Z,4.57
2022-10-30T12:24:53.820Z,5.07
2022-10-30T12:27:22.619Z,4.90
2022-10-30T12:30:09.270Z,5.10
2022-10-30T12:32:43.626Z,4.40
2022-10-30T12:35:31.978Z,4.63
2022-10-30T12:38:03.153Z,4.57
2022-10-30T12:40:31.107Z,4.87
2022-10-30T12:43:03.489Z,4.60
2022-10-30T12:45:34.519Z,4.30
2022-10-30T12:48:08.383Z,4.93
2022-10-30T12:50:42.570Z,4.70
2022-10-30T12:53:21.388Z,4.40
2022-10-30T12:55:50.520Z,4.20
2022-10-30T12:58:25.024Z,4.90
2022-10-30T13:00:58.435Z,4.20
2022-10-30T13:03:32.397Z,4.87
2022-10-30T13:06:05.383Z,4.83
2022-10-30T13:08:36.854Z,4.63
2022-10-30T13:11:09.458Z,4.93
2022-10-30T13:13:39.145Z,4.40
2022-10-30T13:16:12.551Z,4.43
2022-10-30T13:18:39.554Z,4.77
2022-10-30T13:21:20.152Z,4.33
2022-10-30T13:23:52.468Z,4.73
2022-10-30T13:26:25.631Z,4.60
2022-10-30T13:28:57.921Z,5.20
2022-10-30T13:31:34.409Z,4.83
2022-10-30T13:34:09.883Z,4.10
2022-10-30T13:36:43.079Z,4.50
2022-10-30T13:39:19.281Z,4.50
2022-10-30T13:42:02.755Z,5.00
2022-10-30T13:44:39.597Z,4.47
2022-10-30T13:47:17.011Z,4.73
2022-10-30T13:50:06.102Z,6.10
2022-10-30T13:52:36.016Z,5.87
2022-10-30T13:55:10.425Z,5.53
2022-10-30T13:57:43.245Z,5.40
2022-10-30T14:00:16.653Z,4.83
2022-10-30T14:03:10.547Z,5.30
2022-10-30T14:05:42.992Z,5.10
2022-10-30T14:08:17.949Z,4.50
2022-10-30T14:10:48.019Z,4.90
2022-10-30T14:13:26.023Z,5.23
2022-10-30T14:15:59.515Z,4.80
2022-10-30T14:18:28.842Z,4.97
2022-10-30T14:20:57.011Z,5.67
2022-10-30T14:23:27.205Z,5.40
2022-10-30T14:26:25.604Z,5.33
2022-10-30T14:28:55.343Z,4.90
2022-10-30T14:31:34.730Z,5.10
2022-10-30T14:34:01.808Z,4.80
2022-10-30T14:36:49.242Z,5.03
2022-10-30T14:39:29.783Z,5.80
2022-10-30T14:42:07.298Z,6.37
2022-10-30T14:45:01.273Z,4.63
2022-10-30T14:47:53.409Z,5.70
2022-10-30T14:50:33.033Z,6.20
2022-10-30T14:53:25.904Z,6.03
2022-10-30T14:56:00.893Z,6.67
2022-10-30T14:58:31.195Z,8.60
2022-10-30T15:01:30.043Z,6.40
2022-10-30T15:04:09.449Z,6.17
2022-10-30T15:06:43.209Z,5.70
2022-10-30T15:09:21.020Z,7.70
2022-10-30T15:12:07.484Z,6.40
2022-10-30T15:14:53.659Z,7.30
2022-10-30T15:17:27.553Z,5.93
2022-10-30T15:19:54.449Z,7.47
2022-10-30T15:22:23.121Z,6.10
2022-10-30T15:24:50.688Z,6.83
2022-10-30T15:27:19.951Z,8.00
2022-10-30T15:29:53.632Z,7.13
2022-10-30T15:32:21.619Z,6.33
2022-10-30T15:34:56.552Z,6.77
2022-10-30T15:37:23.793Z,7.37
2022-10-30T15:39:50.678Z,7.37
2022-10-30T15:42:17.626Z,6.60
2022-10-30T15:44:46.175Z,6.73
2022-10-30T15:47:18.366Z,6.60
2022-10-30T15:49:51.848Z,7.27
2022-10-30T15:52:21.522Z,7.13
2022-10-30T15:54:53.555Z,7.47
2022-10-30T15:57:49.821Z,7.10
2022-10-30T16:00:22.229Z,7.87
2022-10-30T16:02:59.690Z,8.93
2022-10-30T16:05:27.139Z,15.73
2022-10-30T16:07:56.267Z,11.57
2022-10-30T16:10:23.942Z,8.67
2022-10-30T16:12:52.248Z,8.30
2022-10-30T16:15:26.385Z,9.83
2022-10-30T16:18:06.918Z,10.83
2022-10-30T16:20:34.531Z,10.27
2022-10-30T16:23:01.679Z,9.83
2022-10-30T16:25:28.849Z,9.80
2022-10-30T16:27:56.249Z,9.53
2022-10-30T16:30:28.594Z,8.67
2022-10-30T16:32:55.579Z,9.43
2022-10-30T16:35:24.176Z,17.87
2022-10-30T16:37:51.326Z,14.63
2022-10-30T16:40:21.927Z,13.17
2022-10-30T16:42:53.527Z,12.57
2022-10-30T16:45:47.688Z,12.47
2022-10-30T16:48:19.458Z,12.20
2022-10-30T16:50:47.681Z,12.57
2022-10-30T16:53:18.415Z,12.77
2022-10-30T16:55:45.402Z,10.80
2022-10-30T16:58:13.880Z,10.80
2022-10-30T17:00:41.104Z,11.53
2022-10-30T17:03:09.989Z,10.87
2022-10-30T17:05:37.917Z,10.30
2022-10-30T17:08:08.466Z,11.10
2022-10-30T17:10:37.250Z,10.17
2022-10-30T17:13:30.495Z,11.23
2022-10-30T17:15:57.764Z,11.70
2022-10-30T17:18:30.019Z,10.23
2022-10-30T17:21:04.710Z,11.97
2022-10-30T17:23:32.235Z,12.57
2022-10-30T17:25:59.122Z,12.53
2022-10-30T17:28:27.636Z,25.27
2022-10-30T17:30:54.802Z,24.63
2022-10-30T17:33:34.778Z,15.07
2022-10-30T17:36:02.047Z,14.20
2022-10-30T17:38:28.969Z,12.60
2022-10-30T17:40:56.407Z,13.33
2022-10-30T17:43:27.783Z,13.90
2022-10-30T17:45:54.795Z,15.20
2022-10-30T17:48:24.979Z,14.20
2022-10-30T17:50:51.844Z,13.60
2022-10-30T17:53:21.038Z,15.30
2022-10-30T17:55:54.321Z,13.67
2022-10-30T17:58:24.020Z,14.07
2022-10-30T18:00:50.951Z,15.50
2022-10-30T18:03:17.970Z,15.90
2022-10-30T18:05:45.760Z,13.07
2022-10-30T18:08:12.682Z,14.27
2022-10-30T18:10:39.749Z,13.60
2022-10-30T18:13:06.872Z,15.17
2022-10-30T18:15:35.994Z,14.87
2022-10-30T18:18:03.975Z,15.73
2022-10-30T18:20:31.067Z,16.80
2022-10-30T18:22:58.470Z,17.00
2022-10-30T18:25:27.024Z,17.17
2022-10-30T18:27:54.142Z,16.37
2022-10-30T18:30:21.245Z,16.50
2022-10-30T18:32:49.156Z,15.67
2022-10-30T18:35:24.702Z,17.47
2022-10-30T18:37:51.557Z,17.87
2022-10-30T18:40:22.392Z,22.53
2022-10-30T18:42:49.704Z,17.27
2022-10-30T18:45:19.849Z,17.10
2022-10-30T18:47:46.968Z,14.93
2022-10-30T18:50:14.366Z,17.00
2022-10-30T18:52:41.536Z,17.77
2022-10-30T18:55:19.269Z,17.10
2022-10-30T18:57:46.556Z,16.30
2022-10-30T19:00:15.000Z,17.33
2022-10-30T19:02:42.083Z,17.17
2022-10-30T19:05:27.785Z,17.73
2022-10-30T19:07:54.829Z,20.07
2022-10-30T19:10:21.952Z,20.53
2022-10-30T19:13:10.918Z,19.43
2022-10-30T19:15:37.911Z,19.93
2022-10-30T19:18:05.799Z,20.00
2022-10-30T19:20:50.893Z,20.07
2022-10-30T19:23:22.609Z,20.60
2022-10-30T19:25:49.989Z,21.20
2022-10-30T19:28:17.788Z,23.13
2022-10-30T19:30:49.387Z,20.93
2022-10-30T19:33:16.595Z,22.13
2022-10-30T19:35:44.142Z,22.67
2022-10-30T19:38:11.315Z,18.27
2022-10-30T19:40:38.756Z,19.97
2022-10-30T19:43:05.820Z,24.47
2022-10-30T19:45:33.310Z,25.87
2022-10-30T19:48:01.848Z,20.83
2022-10-30T19:50:33.008Z,21.27
2022-10-30T19:53:01.941Z,23.53
2022-10-30T19:55:31.685Z,23.97
2022-10-30T19:58:00.216Z,20.83
2022-10-30T20:00:29.013Z,25.80
2022-10-30T20:02:57.704Z,26.67
2022-10-30T20:05:27.844Z,27.00
2022-10-30T20:08:03.271Z,26.23
2022-10-30T20:10:32.632Z,29.97
2022-10-30T20:12:59.531Z,27.63
2022-10-30T20:15:27.282Z,36.40
2022-10-30T20:17:54.623Z,23.23
2022-10-30T20:20:23.589Z,23.13
2022-10-30T20:22:50.520Z,25.77
2022-10-30T20:25:18.668Z,25.43
2022-10-30T20:27:46.197Z,23.50
2022-10-30T20:30:16.154Z,22.77
2022-10-30T20:32:43.426Z,35.43
2022-10-30T20:35:11.351Z,28.50
2022-10-30T20:37:38.353Z,23.97
2022-10-30T20:40:10.128Z,27.10
2022-10-30T20:42:37.600Z,30.53
2022-10-30T20:45:05.472Z,30.63
2022-10-30T20:47:32.417Z,30.97
2022-10-30T20:49:59.267Z,29.60
2022-10-30T20:52:26.392Z,29.00
2022-10-30T20:54:53.318Z,32.00
2022-10-30T20:57:20.233Z,40.53
2022-10-30T20:59:47.450Z,33.07
2022-10-30T21:02:14.623Z,34.07
2022-10-30T21:04:41.735Z,25.53
2022-10-30T21:07:08.553Z,28.97
2022-10-30T21:09:35.408Z,28.53
2022-10-30T21:12:02.348Z,31.70
2022-10-30T21:14:29.219Z,32.27
2022-10-30T21:16:56.416Z,32.97
2022-10-30T21:19:23.287Z,26.27
2022-10-30T21:21:50.126Z,29.07
2022-10-30T21:24:17.307Z,31.63
2022-10-30T21:26:44.199Z,28.43
2022-10-30T21:29:11.392Z,31.23
2022-10-30T21:31:38.227Z,30.33
2022-10-30T21:34:05.438Z,26.10
2022-10-30T21:36:32.313Z,23.60
2022-10-30T21:38:59.273Z,29.07
2022-10-30T21:41:26.344Z,29.30
2022-10-30T21:43:54.358Z,30.13
2022-10-30T21:46:21.950Z,31.07
2022-10-30T21:52:31.022Z,30.70
2022-10-30T21:58:45.914Z,28.67
2022-10-30T22:01:15.232Z,37.97
2022-10-30T22:03:42.361Z,29.67
2022-10-30T22:06:10.292Z,73.80
2022-10-30T22:12:18.862Z,27.43
2022-10-30T22:14:45.940Z,34.17
2022-10-30T22:17:12.777Z,29.43
2022-10-30T22:19:39.604Z,31.63
2022-10-30T22:22:06.430Z,33.77
2022-10-30T22:24:33.276Z,30.97
2022-10-30T22:27:00.175Z,29.00
2022-10-30T22:29:27.519Z,26.80
2022-10-30T22:31:54.354Z,24.73
2022-10-30T22:34:21.206Z,23.80
2022-10-30T22:36:48.014Z,26.93
2022-10-30T22:39:14.916Z,31.07
2022-10-30T22:41:42.504Z,29.40
2022-10-30T22:44:13.444Z,32.77
2022-10-30T22:46:40.972Z,27.43
2022-10-30T22:49:09.064Z,30.17
2022-10-30T22:51:37.793Z,28.37
2022-10-30T22:54:06.640Z,25.43
2022-10-30T22:56:34.649Z,31.23
2022-10-30T22:59:03.620Z,29.93
2022-10-30T23:01:33.897Z,31.10
2022-10-30T23:04:02.706Z,32.30
2022-10-30T23:06:30.498Z,33.47
2022-10-30T23:08:58.524Z,38.17
2022-10-30T23:11:26.094Z,34.57
2022-10-30T23:13:53.023Z,36.70
2022-10-30T23:16:22.100Z,35.67
2022-10-30T23:18:49.080Z,34.70
2022-10-30T23:21:18.671Z,33.77
2022-10-30T23:23:45.999Z,30.93
2022-10-30T23:26:14.769Z,32.37
2022-10-30T23:28:41.792Z,28.93
2022-10-30T23:31:08.707Z,33.83
2022-10-30T23:33:35.637Z,32.23
2022-10-30T23:36:03.417Z,34.87
2022-10-30T23:38:32.301Z,37.80
2022-10-30T23:40:59.129Z,33.33
2022-10-30T23:43:26.028Z,34.37
2022-10-30T23:45:52.892Z,36.13
2022-10-30T23:48:19.732Z,35.47
2022-10-30T23:50:46.592Z,34.17
2022-10-30T23:53:13.616Z,30.47
2022-10-30T23:55:41.242Z,32.10
2022-10-30T23:58:08.224Z,31.67
